Time;durP1;ratioP1;P1;durP2;ratioP2;P2;SDS_P1;SDS_P2;PMS_P1;PMS_P2;Temp;Humidity;BMP_temperature;BMP_pressure;BME280_temperature;BME280_humidity;BME280_pressure;Samples;Min_cycle;Max_cycle;Signal;HPM_P1;HPM_P2
2022/03/28 00:02:43;;;;;;;9.70;7.37;;;15.20;90.50;;;;;;5055186;28;20418;-70
2022/03/28 00:06:25;;;;;;;11.27;7.53;;;15.20;90.40;;;;;;5055388;28;20445;-69
2022/03/28 00:09:44;;;;;;;11.00;8.80;;;15.20;90.50;;;;;;5072079;28;21035;-69
2022/03/28 00:13:03;;;;;;;11.60;8.00;;;15.20;90.50;;;;;;5073341;28;20433;-70
2022/03/28 00:31:39;;;;;;;13.30;9.17;;;15.10;90.50;;;;;;5044817;28;20456;-69
2022/03/28 00:50:35;;;;;;;9.63;7.60;;;15.00;90.50;;;;;;5072063;28;20466;-69
2022/03/28 01:13:16;;;;;;;10.20;6.90;;;14.80;90.50;;;;;;5054361;28;20434;-69
2022/03/28 01:18:05;;;;;;;9.50;7.23;;;14.80;90.40;;;;;;5071329;28;20544;-69
2022/03/28 01:20:33;;;;;;;10.43;6.80;;;14.80;90.40;;;;;;5054060;28;20425;-69
2022/03/28 01:24:15;;;;;;;11.73;7.77;;;14.80;90.40;;;;;;5053573;28;20434;-69
2022/03/28 01:27:58;;;;;;;10.93;8.10;;;14.70;90.30;;;;;;5069559;28;20457;-69
2022/03/28 01:31:17;;;;;;;10.13;7.63;;;14.70;90.30;;;;;;5071260;28;20577;-70
2022/03/28 01:33:43;;;;;;;10.30;7.80;;;14.70;90.30;;;;;;5053449;28;20429;-70
2022/03/28 01:36:13;;;;;;;17.53;8.20;;;14.70;90.30;;;;;;5053786;28;20458;-70
2022/03/28 01:38:40;;;;;;;10.33;7.30;;;14.70;90.30;;;;;;5037211;28;20429;-69
2022/03/28 01:41:07;;;;;;;11.47;7.37;;;14.70;90.30;;;;;;5041281;28;20494;-69
2022/03/28 01:43:35;;;;;;;12.50;7.57;;;14.70;90.30;;;;;;5033459;28;20442;-70
2022/03/28 01:46:52;;;;;;;10.80;7.30;;;14.70;90.20;;;;;;5046488;28;20438;-69
2022/03/28 01:49:47;;;;;;;9.83;6.83;;;14.70;90.20;;;;;;5052872;28;20518;-70
2022/03/28 01:52:13;;;;;;;12.17;7.97;;;14.60;90.10;;;;;;5052959;28;20445;-69
2022/03/28 01:55:29;;;;;;;10.47;6.97;;;14.60;90.10;;;;;;5019935;28;20435;-70
2022/03/28 02:02:04;;;;;;;8.23;6.47;;;14.60;90.10;;;;;;5052434;28;20555;-69
2022/03/28 02:05:22;;;;;;;12.80;8.60;;;14.60;90.10;;;;;;5051532;28;20686;-69
2022/03/28 02:08:18;;;;;;;12.47;8.03;;;14.50;90.10;;;;;;5068928;28;20464;-69
2022/03/28 02:10:44;;;;;;;9.63;7.40;;;14.60;90.20;;;;;;5057111;28;20468;-69
2022/03/28 02:13:10;;;;;;;11.20;7.53;;;14.50;90.10;;;;;;5039823;28;20437;-69
2022/03/28 02:16:06;;;;;;;12.03;7.97;;;14.50;90.20;;;;;;5017818;28;20437;-69
2022/03/28 02:19:23;;;;;;;9.60;6.53;;;14.50;90.10;;;;;;5021797;28;20415;-69
2022/03/28 02:23:04;;;;;;;9.43;6.63;;;14.50;90.20;;;;;;5071269;28;20508;-69
2022/03/28 02:25:39;;;;;;;10.20;6.87;;;14.50;90.20;;;;;;5054132;28;20957;-69
2022/03/28 02:32:13;;;;;;;9.47;6.60;;;14.40;90.10;;;;;;5071234;28;20472;-69
2022/03/28 02:46:38;;;;;;;10.97;6.97;;;14.30;90.10;;;;;;5053611;28;20793;-69
2022/03/28 02:49:58;;;;;;;9.13;6.80;;;14.30;90.20;;;;;;5053700;28;20413;-69
2022/03/28 02:53:15;;;;;;;8.20;6.20;;;14.30;90.20;;;;;;5040788;28;21069;-69
2022/03/28 02:56:35;;;;;;;8.87;6.63;;;14.30;90.20;;;;;;5053861;28;20448;-69
2022/03/28 02:59:08;;;;;;;9.73;7.40;;;14.20;90.20;;;;;;5036960;28;20434;-69
2022/03/28 03:01:34;;;;;;;8.53;6.20;;;14.20;90.20;;;;;;5053397;28;20431;-69
2022/03/28 03:04:51;;;;;;;11.60;7.50;;;14.20;90.20;;;;;;5053382;28;20409;-69
2022/03/28 03:07:25;;;;;;;10.83;6.30;;;14.20;90.20;;;;;;5071046;28;20406;-69
2022/03/28 03:09:51;;;;;;;10.90;7.03;;;14.20;90.20;;;;;;5036578;28;20800;-69
2022/03/28 03:13:08;;;;;;;9.43;7.13;;;14.20;90.20;;;;;;5044670;28;20943;-69
2022/03/28 03:16:30;;;;;;;11.50;6.67;;;14.20;90.20;;;;;;5061048;28;20444;-69
2022/03/28 03:20:37;;;;;;;9.70;6.50;;;14.20;90.20;;;;;;5070915;28;20478;-69
2022/03/28 03:23:56;;;;;;;10.13;6.13;;;14.10;90.10;;;;;;5036517;28;20429;-69
2022/03/28 03:26:26;;;;;;;10.50;7.10;;;14.10;90.10;;;;;;5036634;28;20445;-69
2022/03/28 03:28:55;;;;;;;11.90;7.70;;;14.10;90.20;;;;;;5071952;28;20408;-69
2022/03/28 03:32:12;;;;;;;9.47;6.90;;;14.10;90.20;;;;;;5056393;28;20464;-69
2022/03/28 03:34:40;;;;;;;8.77;6.50;;;14.00;90.10;;;;;;5040214;28;20421;-69
2022/03/28 03:40:22;;;;;;;10.47;7.43;;;14.00;90.10;;;;;;5046056;28;20565;-69
2022/03/28 03:43:39;;;;;;;9.63;6.93;;;14.00;90.10;;;;;;5056752;28;20492;-69
2022/03/28 03:46:32;;;;;;;11.83;6.90;;;14.00;90.10;;;;;;5036632;28;20430;-69
2022/03/28 03:49:00;;;;;;;12.57;7.30;;;14.00;90.10;;;;;;5039449;28;20429;-69
2022/03/28 03:51:27;;;;;;;9.87;6.70;;;13.90;90.10;;;;;;5056138;28;20512;-69
2022/03/28 03:54:43;;;;;;;12.87;7.07;;;13.90;90.10;;;;;;5073931;28;20421;-70
2022/03/28 03:57:34;;;;;;;10.40;7.03;;;13.90;90.10;;;;;;5056785;28;20392;-69
2022/03/28 04:00:00;;;;;;;12.00;7.33;;;13.90;90.10;;;;;;5043827;28;20688;-69
2022/03/28 04:02:26;;;;;;;8.10;6.47;;;13.90;90.20;;;;;;5074146;28;20410;-69
2022/03/28 04:04:53;;;;;;;8.93;6.37;;;13.90;90.20;;;;;;5056274;28;20386;-69
2022/03/28 04:07:20;;;;;;;9.97;6.97;;;13.90;90.20;;;;;;5039392;28;20559;-69
2022/03/28 04:10:42;;;;;;;11.20;7.27;;;13.90;90.20;;;;;;5055790;28;20476;-69
2022/03/28 04:13:14;;;;;;;10.20;6.90;;;13.90;90.20;;;;;;5073638;28;20421;-69
2022/03/28 04:15:41;;;;;;;10.57;8.30;;;13.80;90.10;;;;;;5055512;28;20459;-69
2022/03/28 04:18:17;;;;;;;9.30;7.23;;;13.80;90.20;;;;;;5073937;28;20729;-69
2022/03/28 04:20:47;;;;;;;10.80;7.00;;;13.80;90.20;;;;;;5055948;28;20425;-69
2022/03/28 04:24:08;;;;;;;10.93;7.43;;;13.80;90.20;;;;;;5054916;28;20434;-69
2022/03/28 04:27:03;;;;;;;9.50;8.00;;;13.80;90.20;;;;;;5073625;28;20445;-69
2022/03/28 04:29:29;;;;;;;9.73;6.80;;;13.80;90.20;;;;;;5039068;28;20960;-69
2022/03/28 04:32:00;;;;;;;9.37;6.70;;;13.70;90.20;;;;;;5055297;28;20465;-69
2022/03/28 04:34:26;;;;;;;11.27;7.53;;;13.70;90.20;;;;;;5055493;28;20409;-69
2022/03/28 04:36:55;;;;;;;9.70;7.27;;;13.70;90.20;;;;;;5055291;28;20857;-69
2022/03/28 04:39:23;;;;;;;11.53;6.93;;;13.70;90.20;;;;;;5054957;28;20414;-69
2022/03/28 04:42:40;;;;;;;11.43;7.23;;;13.70;90.20;;;;;;5037559;28;20508;-69
2022/03/28 04:49:16;;;;;;;9.30;6.93;;;13.70;90.20;;;;;;5052128;28;20479;-69
2022/03/28 04:52:33;;;;;;;9.80;6.90;;;13.60;90.20;;;;;;5048385;28;21028;-69
2022/03/28 04:56:14;;;;;;;7.63;5.53;;;13.60;90.20;;;;;;5049468;28;20443;-70
2022/03/28 04:59:55;;;;;;;9.30;6.60;;;13.60;90.20;;;;;;5073234;28;20447;-71
2022/03/28 05:03:13;;;;;;;15.03;6.43;;;13.50;90.20;;;;;;5039892;28;20427;-71
2022/03/28 05:05:46;;;;;;;9.20;5.90;;;13.50;90.20;;;;;;5062968;28;20812;-70
2022/03/28 05:08:19;;;;;;;11.20;6.87;;;13.50;90.30;;;;;;5073607;28;20413;-74
2022/03/28 05:10:46;;;;;;;9.10;7.13;;;13.50;90.30;;;;;;5054526;28;20461;-72
2022/03/28 05:13:14;;;;;;;9.40;6.70;;;13.50;90.30;;;;;;5038832;28;20418;-72
2022/03/28 05:15:44;;;;;;;10.87;7.10;;;13.50;90.30;;;;;;5073014;28;20807;-73
2022/03/28 05:18:15;;;;;;;11.00;7.23;;;13.50;90.30;;;;;;5052969;28;20861;-73
2022/03/28 05:20:43;;;;;;;9.73;6.63;;;13.50;90.40;;;;;;5053780;28;20406;-73
2022/03/28 05:23:09;;;;;;;10.43;7.00;;;13.40;90.30;;;;;;5052723;28;20429;-73
2022/03/28 05:25:38;;;;;;;9.50;5.67;;;13.40;90.30;;;;;;5052305;28;20457;-72
2022/03/28 05:28:05;;;;;;;9.13;6.50;;;13.40;90.30;;;;;;5039076;28;20509;-72
2022/03/28 05:30:32;;;;;;;9.00;6.90;;;13.40;90.30;;;;;;5054930;28;20540;-72
2022/03/28 05:33:01;;;;;;;9.27;6.90;;;13.40;90.30;;;;;;5073098;28;20411;-72
2022/03/28 05:35:55;;;;;;;8.30;6.13;;;13.40;90.20;;;;;;5038109;28;20437;-72
2022/03/28 05:38:21;;;;;;;10.80;7.73;;;13.40;90.30;;;;;;5032748;28;20399;-72
2022/03/28 05:41:42;;;;;;;12.83;7.30;;;13.40;90.30;;;;;;5050094;28;20437;-72
2022/03/28 05:45:03;;;;;;;9.70;7.37;;;13.30;90.30;;;;;;5048414;28;20525;-74
2022/03/28 05:48:00;;;;;;;14.23;7.70;;;13.30;90.30;;;;;;5003234;28;20425;-72
2022/03/28 05:50:28;;;;;;;8.37;6.43;;;13.30;90.40;;;;;;5035059;28;20478;-72
2022/03/28 05:53:48;;;;;;;10.37;7.00;;;13.30;90.50;;;;;;5019367;28;20395;-72
2022/03/28 05:57:05;;;;;;;8.63;6.90;;;13.30;90.50;;;;;;5051276;28;20522;-72
2022/03/28 06:04:29;;;;;;;9.67;6.03;;;13.20;90.40;;;;;;5053485;28;20407;-72
2022/03/28 06:07:46;;;;;;;11.50;6.87;;;13.20;90.50;;;;;;5018466;28;20760;-72
2022/03/28 06:11:06;;;;;;;11.37;6.97;;;13.20;90.50;;;;;;5052672;28;20448;-72
2022/03/28 06:13:37;;;;;;;10.77;7.50;;;13.10;90.50;;;;;;5052583;28;20945;-72
2022/03/28 06:16:08;;;;;;;9.57;7.37;;;13.10;90.60;;;;;;5034391;28;20473;-72
2022/03/28 06:18:40;;;;;;;11.00;7.20;;;13.10;90.70;;;;;;5034655;28;20944;-72
2022/03/28 06:21:09;;;;;;;10.30;6.77;;;13.10;90.70;;;;;;5052252;28;20418;-72
2022/03/28 06:23:38;;;;;;;10.37;6.70;;;13.10;90.70;;;;;;5051616;28;20523;-72
2022/03/28 06:26:05;;;;;;;9.67;6.03;;;13.10;90.70;;;;;;5032627;28;20478;-73
2022/03/28 06:29:23;;;;;;;11.23;6.70;;;13.10;90.70;;;;;;5049393;28;20413;-72
2022/03/28 06:32:43;;;;;;;13.00;7.27;;;13.10;90.70;;;;;;5031537;28;20458;-73
2022/03/28 06:43:33;;;;;;;10.63;7.07;;;13.00;90.90;;;;;;5048334;28;20406;-74
2022/03/28 06:46:06;;;;;;;7.70;6.00;;;13.00;90.90;;;;;;5052905;28;20457;-74
2022/03/28 06:48:32;;;;;;;8.73;6.50;;;13.00;91.00;;;;;;5067358;28;20461;-72
2022/03/28 06:51:07;;;;;;;10.00;7.07;;;13.00;91.00;;;;;;5033207;28;20543;-72
2022/03/28 06:53:34;;;;;;;10.40;6.97;;;13.00;91.00;;;;;;5047514;28;20514;-70
2022/03/28 06:56:05;;;;;;;10.13;6.77;;;13.00;91.00;;;;;;5043877;28;20821;-71
2022/03/28 06:58:31;;;;;;;15.23;8.83;;;13.00;91.10;;;;;;5024072;28;20446;-71
2022/03/28 07:01:00;;;;;;;9.60;6.50;;;13.00;91.10;;;;;;5049343;28;20433;-71
2022/03/28 07:03:30;;;;;;;11.60;7.40;;;13.00;91.10;;;;;;5058974;28;20786;-70
2022/03/28 07:06:48;;;;;;;10.27;6.87;;;13.00;91.10;;;;;;5049367;28;20460;-70
2022/03/28 07:10:04;;;;;;;10.70;6.77;;;13.00;91.20;;;;;;5032623;28;20432;-70
2022/03/28 07:25:21;;;;;;;10.77;6.57;;;12.90;91.40;;;;;;5054274;28;20437;-71
2022/03/28 07:36:10;;;;;;;8.60;6.63;;;12.90;91.60;;;;;;5048093;28;20445;-71
2022/03/28 07:38:40;;;;;;;11.10;6.67;;;12.90;91.70;;;;;;5030051;28;20473;-71
2022/03/28 07:41:36;;;;;;;11.70;6.87;;;12.90;91.80;;;;;;5034928;28;20434;-71
2022/03/28 07:44:07;;;;;;;9.33;6.67;;;12.90;91.80;;;;;;5048580;28;20419;-70
2022/03/28 07:46:34;;;;;;;12.17;7.53;;;12.90;91.80;;;;;;5060693;28;20452;-70
2022/03/28 07:49:04;;;;;;;9.90;6.47;;;12.90;91.80;;;;;;5049048;28;20466;-70
2022/03/28 07:51:32;;;;;;;12.43;6.37;;;12.90;91.80;;;;;;5066351;28;20455;-73
2022/03/28 07:53:58;;;;;;;10.80;6.53;;;12.90;91.80;;;;;;5043030;28;20482;-73
2022/03/28 07:56:25;;;;;;;8.47;6.53;;;12.90;92.20;;;;;;5052747;28;21132;-72
2022/03/28 07:58:51;;;;;;;9.03;6.33;;;12.90;91.90;;;;;;5068135;28;20873;-72
2022/03/28 08:01:17;;;;;;;10.60;7.60;;;12.90;92.00;;;;;;5053262;28;20536;-71
2022/03/28 08:03:44;;;;;;;9.87;6.53;;;12.90;92.00;;;;;;5044850;28;20445;-71
2022/03/28 08:06:12;;;;;;;11.63;6.80;;;12.90;92.00;;;;;;5043950;28;20815;-70
2022/03/28 08:08:40;;;;;;;13.70;7.80;;;12.90;92.10;;;;;;5030995;28;20441;-72
2022/03/28 08:11:07;;;;;;;8.93;6.17;;;13.00;92.10;;;;;;5061468;28;20898;-71
2022/03/28 08:13:37;;;;;;;10.57;8.03;;;12.90;92.20;;;;;;5056582;28;20425;-72
2022/03/28 08:16:04;;;;;;;11.37;7.47;;;12.90;92.30;;;;;;5044148;28;20454;-71
2022/03/28 08:18:30;;;;;;;15.83;8.63;;;13.00;92.40;;;;;;5040927;28;20430;-72
2022/03/28 08:20:57;;;;;;;9.83;6.57;;;13.00;92.50;;;;;;5045796;28;20418;-72
2022/03/28 08:23:23;;;;;;;11.50;7.70;;;13.00;92.50;;;;;;5041784;28;20440;-71
2022/03/28 08:25:50;;;;;;;11.60;8.60;;;12.90;92.50;;;;;;5027266;28;20455;-71
2022/03/28 08:28:17;;;;;;;11.90;7.87;;;13.00;92.50;;;;;;5042999;28;20451;-72
2022/03/28 08:30:43;;;;;;;12.50;8.00;;;13.00;92.50;;;;;;5033938;28;20457;-71
2022/03/28 08:33:09;;;;;;;9.70;7.73;;;13.00;92.60;;;;;;5034733;28;20787;-72
2022/03/28 08:35:36;;;;;;;11.80;7.93;;;13.00;92.80;;;;;;5060881;28;20864;-72
2022/03/28 08:38:02;;;;;;;13.97;8.23;;;13.00;93.00;;;;;;5033316;28;20489;-72
2022/03/28 08:40:28;;;;;;;13.00;7.87;;;13.00;93.00;;;;;;5063417;28;20783;-72
2022/03/28 08:42:54;;;;;;;11.77;7.90;;;13.00;93.00;;;;;;5059227;28;21012;-72
2022/03/28 08:45:20;;;;;;;11.97;8.57;;;13.00;93.10;;;;;;5027887;28;21048;-72
2022/03/28 08:47:49;;;;;;;13.07;8.73;;;13.00;93.10;;;;;;5052446;28;20449;-72
2022/03/28 08:50:16;;;;;;;13.80;8.70;;;13.10;93.30;;;;;;5057391;28;20816;-72
2022/03/28 08:52:43;;;;;;;16.00;10.70;;;13.10;93.40;;;;;;5048942;28;20453;-71
2022/03/28 08:55:14;;;;;;;15.00;9.80;;;13.10;93.40;;;;;;5049289;28;20475;-71
2022/03/28 08:57:43;;;;;;;17.80;10.27;;;13.10;93.50;;;;;;5068694;28;20453;-71
2022/03/28 09:00:10;;;;;;;13.10;9.50;;;13.10;93.50;;;;;;5041296;28;20878;-71
2022/03/28 09:02:50;;;;;;;18.83;9.70;;;13.10;93.50;;;;;;5052683;28;20436;-71
2022/03/28 09:05:18;;;;;;;19.93;10.93;;;13.20;93.50;;;;;;5051217;28;20441;-70
2022/03/28 09:07:46;;;;;;;15.33;10.13;;;13.20;93.50;;;;;;5058969;28;20937;-71
2022/03/28 09:10:17;;;;;;;15.17;9.70;;;13.20;93.50;;;;;;5040961;28;20474;-71
2022/03/28 09:13:01;;;;;;;13.90;10.43;;;13.20;93.50;;;;;;5013848;28;20518;-70
2022/03/28 09:15:55;;;;;;;16.50;10.20;;;13.30;93.60;;;;;;5049398;28;20508;-71
2022/03/28 09:18:25;;;;;;;14.60;9.40;;;13.30;93.70;;;;;;5060364;28;20469;-71
2022/03/28 09:20:54;;;;;;;19.40;11.80;;;13.30;93.80;;;;;;5056541;28;20456;-71
2022/03/28 09:23:33;;;;;;;16.73;11.60;;;13.30;93.90;;;;;;5062977;28;20456;-73
2022/03/28 09:26:16;;;;;;;18.40;10.80;;;13.30;94.10;;;;;;5057895;28;20447;-70
2022/03/28 09:28:47;;;;;;;18.20;12.33;;;13.40;94.30;;;;;;5068388;28;20463;-70
2022/03/28 09:31:32;;;;;;;17.27;11.17;;;13.30;94.40;;;;;;5034183;28;20461;-70
2022/03/28 09:34:16;;;;;;;16.40;11.00;;;13.40;94.50;;;;;;5051297;28;20425;-70
2022/03/28 09:36:45;;;;;;;18.07;11.87;;;13.40;94.50;;;;;;5050707;28;20472;-70
2022/03/28 09:39:19;;;;;;;18.40;11.80;;;13.50;94.50;;;;;;5049495;28;20431;-71
2022/03/28 09:41:57;;;;;;;15.90;11.87;;;13.50;94.60;;;;;;5047936;28;20428;-71
2022/03/28 09:44:51;;;;;;;17.80;12.07;;;13.50;94.70;;;;;;5045975;28;20804;-71
2022/03/28 09:47:22;;;;;;;18.77;13.70;;;13.60;94.90;;;;;;5050011;28;20468;-70
2022/03/28 09:49:54;;;;;;;21.80;13.80;;;13.60;95.10;;;;;;5017221;28;20984;-70
2022/03/28 09:52:22;;;;;;;18.73;12.13;;;13.60;95.10;;;;;;5065257;28;20455;-70
2022/03/28 09:54:56;;;;;;;20.23;13.20;;;13.60;95.20;;;;;;5049957;28;20422;-71
2022/03/28 09:57:32;;;;;;;19.43;13.27;;;13.70;95.20;;;;;;5050402;28;20863;-71
2022/03/28 10:00:20;;;;;;;22.00;14.40;;;13.70;95.20;;;;;;5050391;28;20414;-71
2022/03/28 10:02:47;;;;;;;20.80;13.83;;;13.70;95.20;;;;;;5049855;28;20428;-70
2022/03/28 10:05:14;;;;;;;23.53;14.77;;;13.70;95.30;;;;;;5027973;28;20456;-71
2022/03/28 10:07:40;;;;;;;20.67;13.30;;;13.80;95.40;;;;;;5149305;22;20532;-96
2022/03/28 10:10:06;;;;;;;19.57;13.70;;;13.80;95.50;;;;;;5058643;28;20499;-96
2022/03/28 10:16:53;;;;;;;24.00;14.70;;;13.90;95.40;;;;;;5087408;22;20575;-72
2022/03/28 10:20:09;;;;;;;26.23;15.90;;;13.90;95.40;;;;;;5048959;28;20546;-72
2022/03/28 10:23:51;;;;;;;23.83;16.70;;;14.00;95.40;;;;;;5043371;28;20484;-72
2022/03/28 10:26:52;;;;;;;26.03;16.43;;;14.00;95.30;;;;;;5056999;28;20452;-72
2022/03/28 10:29:34;;;;;;;25.50;16.77;;;14.00;95.50;;;;;;5057761;28;20423;-72
2022/03/28 10:32:15;;;;;;;25.87;17.17;;;14.10;95.50;;;;;;5043402;28;20498;-72
2022/03/28 10:34:45;;;;;;;29.47;17.20;;;14.10;95.30;;;;;;5048788;28;20438;-73
2022/03/28 10:37:31;;;;;;;28.90;17.80;;;14.10;95.10;;;;;;5057556;28;20449;-72
2022/03/28 10:40:50;;;;;;;24.13;16.50;;;14.20;95.40;;;;;;5043877;28;20450;-72
2022/03/28 10:43:17;;;;;;;28.00;17.27;;;14.20;95.50;;;;;;5063442;28;20453;-73
2022/03/28 10:45:50;;;;;;;23.93;17.07;;;14.20;95.40;;;;;;5059334;28;20450;-72
2022/03/28 10:48:32;;;;;;;23.87;16.13;;;14.30;95.20;;;;;;5063097;28;20438;-73
2022/03/28 10:51:05;;;;;;;27.90;17.37;;;14.40;95.30;;;;;;5050967;28;20471;-73
2022/03/28 10:54:05;;;;;;;29.27;16.97;;;14.40;95.20;;;;;;5061397;28;20496;-72
2022/03/28 10:56:39;;;;;;;26.10;16.20;;;14.40;95.00;;;;;;5032408;28;20496;-73
2022/03/28 10:59:56;;;;;;;26.00;15.67;;;14.50;94.80;;;;;;5059746;28;20970;-73
2022/03/28 11:03:13;;;;;;;24.00;15.57;;;14.50;94.80;;;;;;5064368;28;20913;-72
2022/03/28 11:06:30;;;;;;;21.47;15.20;;;14.50;94.60;;;;;;5040714;28;20974;-73
2022/03/28 11:10:13;;;;;;;27.10;17.40;;;14.60;94.60;;;;;;5066312;28;20418;-73
2022/03/28 11:13:59;;;;;;;27.57;16.70;;;14.60;94.40;;;;;;5038207;28;20426;-72
2022/03/28 11:17:16;;;;;;;25.67;17.17;;;14.70;94.60;;;;;;5037234;28;20446;-72
2022/03/28 11:19:57;;;;;;;26.27;17.73;;;14.70;94.60;;;;;;5065059;28;20531;-73
2022/03/28 11:25:52;;;;;;;30.20;19.80;;;14.90;94.60;;;;;;5052867;28;20467;-72
2022/03/28 11:29:09;;;;;;;35.80;20.17;;;14.90;94.80;;;;;;5023608;28;20475;-73
2022/03/28 11:33:17;;;;;;;28.33;18.73;;;14.90;94.80;;;;;;5066038;28;21054;-71
2022/03/28 11:36:13;;;;;;;27.13;19.00;;;15.00;94.60;;;;;;5030597;28;20464;-75
2022/03/28 11:38:44;;;;;;;30.60;19.37;;;15.00;94.70;;;;;;5069929;28;20436;-73
2022/03/28 11:46:13;;;;;;;26.70;18.57;;;15.10;94.70;;;;;;5058965;28;20453;-73
2022/03/28 11:49:31;;;;;;;33.23;21.27;;;15.20;94.40;;;;;;5063040;28;20456;-73
2022/03/28 11:52:51;;;;;;;29.10;18.67;;;15.20;94.20;;;;;;5045957;28;20473;-73
2022/03/28 11:55:55;;;;;;;31.23;17.97;;;15.30;94.30;;;;;;5058353;28;20529;-77
2022/03/28 11:58:32;;;;;;;28.70;17.93;;;15.30;94.30;;;;;;5052141;28;20888;-74
2022/03/28 12:01:49;;;;;;;32.20;19.03;;;15.40;94.50;;;;;;5052655;28;20980;-73
2022/03/28 12:12:29;;;;;;;32.93;20.40;;;15.60;94.30;;;;;;5061394;28;20548;-75
2022/03/28 12:14:55;;;;;;;29.93;20.47;;;15.60;94.10;;;;;;5040484;28;20428;-73
2022/03/28 12:17:27;;;;;;;27.87;19.53;;;15.60;94.10;;;;;;5054824;28;20455;-73
2022/03/28 12:20:07;;;;;;;33.33;20.07;;;15.70;94.20;;;;;;5055551;28;20435;-74
2022/03/28 12:22:44;;;;;;;27.97;18.13;;;15.70;94.20;;;;;;5062317;28;20452;-73
2022/03/28 12:25:27;;;;;;;33.33;19.47;;;15.70;94.00;;;;;;5045664;28;20898;-73
2022/03/28 12:27:59;;;;;;;32.27;20.40;;;15.80;93.90;;;;;;5072598;28;20498;-73
2022/03/28 12:30:53;;;;;;;31.10;19.60;;;15.80;93.80;;;;;;5052266;28;20547;-74
2022/03/28 12:33:31;;;;;;;29.73;19.57;;;15.90;93.90;;;;;;5015231;28;20426;-73
2022/03/28 12:36:06;;;;;;;28.13;19.30;;;15.90;93.90;;;;;;5029116;28;20464;-74
2022/03/28 12:38:38;;;;;;;33.70;20.97;;;16.00;93.80;;;;;;5054902;28;20481;-74
2022/03/28 12:41:11;;;;;;;39.07;22.07;;;16.00;93.70;;;;;;5035141;28;20436;-73
2022/03/28 12:43:39;;;;;;;27.53;18.13;;;16.10;93.80;;;;;;5070788;28;20538;-74
2022/03/28 12:46:10;;;;;;;32.40;19.90;;;16.10;93.80;;;;;;5034739;28;20445;-75
2022/03/28 12:49:01;;;;;;;30.10;19.27;;;16.10;93.70;;;;;;5051435;28;20473;-73
2022/03/28 12:51:34;;;;;;;26.83;19.10;;;16.10;93.60;;;;;;5068349;28;20456;-74
2022/03/28 12:54:00;;;;;;;30.33;18.90;;;16.20;93.70;;;;;;5057133;28;20465;-73
2022/03/28 12:57:02;;;;;;;31.13;20.43;;;16.20;93.70;;;;;;5054894;28;20447;-73
2022/03/28 12:59:31;;;;;;;29.10;19.43;;;16.20;93.70;;;;;;5047762;28;20447;-73
2022/03/28 13:02:12;;;;;;;32.07;21.43;;;16.30;93.60;;;;;;5057301;28;20933;-73
2022/03/28 13:04:46;;;;;;;32.13;20.57;;;16.30;93.50;;;;;;5065693;28;20910;-75
2022/03/28 13:07:21;;;;;;;26.73;17.20;;;16.40;93.50;;;;;;5059961;28;20955;-76
2022/03/28 13:09:57;;;;;;;26.37;17.90;;;16.40;93.40;;;;;;5046360;28;20457;-73
2022/03/28 13:12:38;;;;;;;27.27;18.73;;;16.40;93.40;;;;;;5067418;28;20540;-74
2022/03/28 13:15:20;;;;;;;28.00;18.77;;;16.40;93.30;;;;;;5051422;28;20794;-74
2022/03/28 13:17:48;;;;;;;24.07;17.27;;;16.40;93.30;;;;;;5064906;28;20942;-73
2022/03/28 13:20:18;;;;;;;27.27;17.67;;;16.50;93.30;;;;;;5067954;28;20411;-74
2022/03/28 13:22:51;;;;;;;24.40;17.50;;;16.50;93.30;;;;;;5069540;28;21281;-73
2022/03/28 13:25:44;;;;;;;28.97;19.00;;;16.50;93.30;;;;;;5048760;28;20452;-74
2022/03/28 13:28:39;;;;;;;26.03;17.27;;;16.60;93.30;;;;;;5067897;28;20423;-73
2022/03/28 13:31:55;;;;;;;28.10;18.23;;;16.60;93.30;;;;;;5071096;28;20460;-73
2022/03/28 13:35:38;;;;;;;29.40;17.30;;;16.60;93.20;;;;;;5070075;28;20444;-74
2022/03/28 13:46:23;;;;;;;25.87;16.70;;;16.70;93.10;;;;;;5059704;28;20463;-74
2022/03/28 13:48:51;;;;;;;28.70;18.07;;;16.70;93.10;;;;;;5068800;28;20488;-76
2022/03/28 13:52:08;;;;;;;27.70;18.30;;;16.80;93.10;;;;;;5069280;28;20460;-74
2022/03/28 13:55:51;;;;;;;28.70;17.27;;;16.80;93.10;;;;;;5070151;28;20422;-76
2022/03/28 13:58:44;;;;;;;22.17;15.50;;;16.80;93.00;;;;;;5070584;28;20421;-75
2022/03/28 14:01:15;;;;;;;23.27;15.60;;;16.90;93.10;;;;;;5070598;28;20472;-74
2022/03/28 14:04:38;;;;;;;23.60;16.70;;;16.90;93.10;;;;;;5053434;28;20432;-73
2022/03/28 14:07:04;;;;;;;24.17;16.60;;;16.90;93.00;;;;;;5051790;28;20479;-74
2022/03/28 14:09:30;;;;;;;27.13;17.23;;;17.00;93.00;;;;;;5063050;28;20432;-74
2022/03/28 14:11:56;;;;;;;25.20;16.67;;;17.00;93.00;;;;;;5064584;28;20495;-75
2022/03/28 14:14:28;;;;;;;23.83;16.17;;;17.00;92.90;;;;;;5079537;28;20771;-73
2022/03/28 14:16:57;;;;;;;30.40;16.40;;;17.00;92.90;;;;;;5069184;28;20433;-74
2022/03/28 14:19:23;;;;;;;25.27;17.13;;;17.10;92.90;;;;;;5070368;28;20418;-73
2022/03/28 14:21:55;;;;;;;22.77;15.70;;;17.10;92.80;;;;;;5068574;28;20421;-74
2022/03/28 14:24:21;;;;;;;24.83;16.07;;;17.10;92.80;;;;;;5069962;28;20440;-74
2022/03/28 14:26:49;;;;;;;23.87;16.73;;;17.20;92.80;;;;;;5070729;28;20453;-73
2022/03/28 14:29:22;;;;;;;23.97;15.90;;;17.20;92.80;;;;;;5068784;28;20449;-73
2022/03/28 14:31:48;;;;;;;23.30;15.90;;;17.20;92.70;;;;;;5052537;28;20490;-75
2022/03/28 14:34:15;;;;;;;25.00;17.17;;;17.20;92.60;;;;;;5067237;28;20426;-75
2022/03/28 14:36:42;;;;;;;26.37;18.17;;;17.20;92.60;;;;;;5052097;28;20509;-73
2022/03/28 14:39:09;;;;;;;28.10;16.20;;;17.30;92.60;;;;;;5075932;28;20427;-74
2022/03/28 14:42:02;;;;;;;25.10;16.17;;;17.30;92.60;;;;;;5050890;28;20902;-74
2022/03/28 14:44:33;;;;;;;23.40;15.60;;;17.30;92.50;;;;;;5051031;28;20487;-75
2022/03/28 14:46:59;;;;;;;24.53;16.13;;;17.40;92.50;;;;;;5069764;28;20432;-75
2022/03/28 14:49:25;;;;;;;24.53;17.40;;;17.30;92.40;;;;;;5069138;28;20933;-73
2022/03/28 14:52:43;;;;;;;26.50;17.27;;;17.40;92.40;;;;;;5068727;28;20457;-73
2022/03/28 14:56:03;;;;;;;22.10;16.73;;;17.40;92.40;;;;;;5068792;28;20440;-74
2022/03/28 14:58:58;;;;;;;26.80;16.40;;;17.40;92.30;;;;;;5052100;28;20435;-74
2022/03/28 15:04:49;;;;;;;26.43;17.17;;;17.40;92.30;;;;;;5069506;28;20801;-74
2022/03/28 15:08:10;;;;;;;21.17;15.50;;;17.50;92.30;;;;;;5068949;28;20914;-74
2022/03/28 15:11:52;;;;;;;22.03;15.57;;;17.50;92.20;;;;;;5068881;28;20529;-74
2022/03/28 15:15:34;;;;;;;24.87;17.20;;;17.50;92.20;;;;;;5055383;28;20433;-74
2022/03/28 15:18:55;;;;;;;26.67;17.17;;;17.50;92.20;;;;;;5068678;28;20491;-74
2022/03/28 15:34:00;;;;;;;22.50;14.83;;;17.60;92.10;;;;;;5073086;28;20905;-74
2022/03/28 15:36:32;;;;;;;23.80;15.37;;;17.60;92.10;;;;;;5061537;28;20440;-74
2022/03/28 15:39:04;;;;;;;23.07;14.97;;;17.60;92.10;;;;;;5068995;28;20972;-74
2022/03/28 15:41:30;;;;;;;22.97;15.60;;;17.70;92.00;;;;;;5050364;28;20428;-74
2022/03/28 15:43:57;;;;;;;21.10;14.73;;;17.70;91.90;;;;;;5068649;28;20397;-74
2022/03/28 15:46:27;;;;;;;21.90;15.10;;;17.70;91.90;;;;;;5052332;28;20857;-74
2022/03/28 15:48:54;;;;;;;24.63;15.40;;;17.70;91.90;;;;;;5039978;28;20425;-74
2022/03/28 15:54:39;;;;;;;19.73;14.13;;;17.80;91.80;;;;;;5064884;28;20448;-73
2022/03/28 15:57:57;;;;;;;22.10;14.50;;;17.80;91.70;;;;;;5071916;28;20508;-73
2022/03/28 16:01:52;;;;;;;20.00;14.37;;;17.80;91.70;;;;;;5072611;28;20422;-73
2022/03/28 16:05:08;;;;;;;20.67;14.03;;;17.80;91.60;;;;;;5054432;28;20851;-74
2022/03/28 16:07:34;;;;;;;23.20;14.40;;;17.80;91.60;;;;;;5052387;28;20507;-73
2022/03/28 16:10:52;;;;;;;25.40;15.00;;;17.80;91.60;;;;;;5062567;28;20946;-74
2022/03/28 16:14:13;;;;;;;21.13;14.53;;;17.80;91.60;;;;;;5052427;28;20839;-75
2022/03/28 16:16:45;;;;;;;19.13;13.10;;;17.90;91.60;;;;;;5047643;28;20484;-73
2022/03/28 16:19:15;;;;;;;22.93;14.97;;;17.90;91.60;;;;;;5036481;28;20427;-74
2022/03/28 16:22:06;;;;;;;20.43;14.40;;;17.90;91.60;;;;;;5053384;28;20436;-73
2022/03/28 16:24:34;;;;;;;22.20;14.73;;;17.80;91.50;;;;;;5035447;28;20427;-73
2022/03/28 16:27:28;;;;;;;22.10;13.53;;;17.90;91.50;;;;;;5052702;28;20445;-73
2022/03/28 16:29:56;;;;;;;22.13;14.50;;;17.80;91.40;;;;;;5072369;28;20436;-73
2022/03/28 16:32:51;;;;;;;16.80;12.67;;;17.90;91.30;;;;;;5071811;28;20969;-73
2022/03/28 16:35:23;;;;;;;17.30;13.00;;;17.90;91.30;;;;;;5051838;28;20463;-73
2022/03/28 16:46:30;;;;;;;19.10;13.53;;;17.90;91.20;;;;;;5061141;28;20464;-73
2022/03/28 16:49:51;;;;;;;18.30;12.43;;;17.80;91.10;;;;;;5052883;28;20615;-73
2022/03/28 16:53:11;;;;;;;20.17;13.33;;;17.80;91.10;;;;;;5068126;28;20506;-73
2022/03/28 16:56:55;;;;;;;19.70;14.00;;;17.70;91.10;;;;;;5052707;28;20451;-73
2022/03/28 17:00:13;;;;;;;20.50;14.10;;;17.80;91.20;;;;;;5070991;28;20405;-73